Time;durP1;ratioP1;P1;durP2;ratioP2;P2;SDS_P1;SDS_P2;PMS_P1;PMS_P2;Temp;Humidity;BMP_temperature;BMP_pressure;BME280_temperature;BME280_humidity;BME280_pressure;Samples;Min_cycle;Max_cycle;Signal;HPM_P1;HPM_P2
2021/03/31 00:00:39;;;;;;;3.77;3.47;;;;;;;;;;5061840;28;20850;-78
2021/03/31 00:03:07;;;;;;;6.25;4.75;;;;;;;;;;5062661;28;20871;-78
2021/03/31 00:05:33;;;;;;;4.80;4.10;;;;;;;;;;5059815;28;20204;-78
2021/03/31 00:07:59;;;;;;;4.90;4.40;;;;;;;;;;5058347;28;20177;-78
2021/03/31 00:10:30;;;;;;;5.60;4.20;;;;;;;;;;5054385;28;20709;-78
2021/03/31 00:12:56;;;;;;;5.72;4.30;;;;;;;;;;5051045;28;20433;-78
2021/03/31 00:15:23;;;;;;;5.15;4.32;;;;;;;;;;5060206;28;20655;-78
2021/03/31 00:17:49;;;;;;;5.65;4.32;;;;;;;;;;5056433;28;20359;-79
2021/03/31 00:20:15;;;;;;;5.32;4.40;;;;;;;;;;5058463;28;20200;-78
2021/03/31 00:22:41;;;;;;;4.55;4.15;;;;;;;;;;5065758;28;20630;-79
2021/03/31 00:25:08;;;;;;;4.82;3.72;;;;;;;;;;5060403;28;21468;-78
2021/03/31 00:27:34;;;;;;;4.70;4.00;;;;;;;;;;5059419;28;20200;-78
2021/03/31 00:30:00;;;;;;;7.43;4.50;;;;;;;;;;5057789;28;20554;-78
2021/03/31 00:32:26;;;;;;;5.93;4.18;;;;;;;;;;5057640;28;20169;-78
2021/03/31 00:34:52;;;;;;;5.03;4.10;;;;;;;;;;5057231;28;20254;-79
2021/03/31 00:37:18;;;;;;;4.10;3.30;;;;;;;;;;5055190;28;20463;-78
2021/03/31 00:39:44;;;;;;;4.43;3.30;;;;;;;;;;5057646;28;20182;-78
2021/03/31 00:42:10;;;;;;;8.73;4.00;;;;;;;;;;5074457;28;20180;-78
2021/03/31 00:44:36;;;;;;;4.38;3.95;;;;;;;;;;5057682;28;20465;-78
2021/03/31 00:47:02;;;;;;;5.30;4.60;;;;;;;;;;5057575;28;20180;-78
2021/03/31 00:49:28;;;;;;;6.13;4.47;;;;;;;;;;5059654;28;20493;-78
2021/03/31 00:51:54;;;;;;;4.60;4.20;;;;;;;;;;5058210;28;20185;-78
2021/03/31 00:54:20;;;;;;;3.93;3.63;;;;;;;;;;5060918;28;20431;-78
2021/03/31 00:56:46;;;;;;;5.35;4.72;;;;;;;;;;5055315;28;20446;-78
2021/03/31 00:59:12;;;;;;;7.03;4.22;;;;;;;;;;5059013;28;20491;-78
2021/03/31 01:01:39;;;;;;;5.50;4.50;;;;;;;;;;5059551;28;20192;-78
2021/03/31 01:04:05;;;;;;;5.93;4.40;;;;;;;;;;5056876;28;20460;-78
2021/03/31 01:06:31;;;;;;;4.40;4.00;;;;;;;;;;5057421;28;20211;-78
2021/03/31 01:08:57;;;;;;;4.90;3.80;;;;;;;;;;5057331;28;20177;-78
2021/03/31 01:11:46;;;;;;;6.23;4.93;;;;;;;;;;5059017;28;20200;-78
2021/03/31 01:14:12;;;;;;;9.75;4.30;;;;;;;;;;5047417;28;20837;-78
2021/03/31 01:16:47;;;;;;;4.32;3.92;;;;;;;;;;5055083;28;20275;-78
2021/03/31 01:19:38;;;;;;;5.10;4.10;;;;;;;;;;5054959;28;20199;-78
2021/03/31 01:22:27;;;;;;;4.30;3.97;;;;;;;;;;5056060;28;20182;-78
2021/03/31 01:25:11;;;;;;;7.00;4.65;;;;;;;;;;4998731;28;20210;-78
2021/03/31 01:27:43;;;;;;;4.63;3.67;;;;;;;;;;5012014;28;20209;-77
2021/03/31 01:30:09;;;;;;;6.55;4.65;;;;;;;;;;5004135;28;20296;-78
2021/03/31 01:32:35;;;;;;;5.40;4.20;;;;;;;;;;5020404;28;20252;-78
2021/03/31 01:35:11;;;;;;;5.10;4.00;;;;;;;;;;5021422;28;20198;-78
2021/03/31 01:37:37;;;;;;;6.85;4.25;;;;;;;;;;5019937;28;20441;-78
2021/03/31 01:40:05;;;;;;;4.05;3.22;;;;;;;;;;5020711;28;20194;-78
2021/03/31 01:42:32;;;;;;;4.43;3.97;;;;;;;;;;5003928;28;20249;-78
2021/03/31 01:45:00;;;;;;;4.72;4.25;;;;;;;;;;4993545;28;20695;-78
2021/03/31 01:47:28;;;;;;;4.50;4.10;;;;;;;;;;5020605;28;20205;-78
2021/03/31 01:49:54;;;;;;;4.95;4.18;;;;;;;;;;5021409;28;20225;-78
2021/03/31 01:52:21;;;;;;;10.02;4.93;;;;;;;;;;5019946;28;20198;-78
2021/03/31 01:54:48;;;;;;;4.13;3.72;;;;;;;;;;5003610;28;20210;-78
2021/03/31 01:57:14;;;;;;;6.60;4.20;;;;;;;;;;5020525;28;20186;-78
2021/03/31 01:59:42;;;;;;;4.65;4.25;;;;;;;;;;5017050;28;20194;-78
2021/03/31 02:02:09;;;;;;;6.97;4.38;;;;;;;;;;5037590;28;20217;-78
2021/03/31 02:04:36;;;;;;;5.55;4.32;;;;;;;;;;5057306;28;20226;-78
2021/03/31 02:07:06;;;;;;;5.60;4.00;;;;;;;;;;5054045;28;20188;-78
2021/03/31 02:09:33;;;;;;;5.78;4.45;;;;;;;;;;5058304;28;20185;-78
2021/03/31 02:12:00;;;;;;;4.90;4.10;;;;;;;;;;5056284;28;20200;-79
2021/03/31 02:14:27;;;;;;;8.60;4.90;;;;;;;;;;5055182;28;20177;-78
2021/03/31 02:16:53;;;;;;;4.85;3.60;;;;;;;;;;5055513;28;20249;-78
2021/03/31 02:19:20;;;;;;;7.95;4.63;;;;;;;;;;5054298;28;20794;-78
2021/03/31 02:21:46;;;;;;;7.78;5.32;;;;;;;;;;5056542;28;20196;-79
2021/03/31 02:24:17;;;;;;;4.20;3.80;;;;;;;;;;5057647;28;20197;-78
2021/03/31 02:26:43;;;;;;;5.13;4.05;;;;;;;;;;5054114;28;20185;-79
2021/03/31 02:29:09;;;;;;;6.75;4.55;;;;;;;;;;5057833;28;20173;-79
2021/03/31 02:31:36;;;;;;;5.70;3.88;;;;;;;;;;5053721;28;20185;-78
2021/03/31 02:34:03;;;;;;;4.70;3.55;;;;;;;;;;5054513;28;20265;-78
2021/03/31 02:36:30;;;;;;;5.07;4.00;;;;;;;;;;5056821;28;20187;-78
2021/03/31 02:38:57;;;;;;;5.40;4.32;;;;;;;;;;5055566;28;20189;-78
2021/03/31 02:41:23;;;;;;;4.45;4.05;;;;;;;;;;5052880;28;20255;-78
2021/03/31 02:43:51;;;;;;;4.43;3.97;;;;;;;;;;5058420;28;20243;-78
2021/03/31 02:46:19;;;;;;;6.70;4.68;;;;;;;;;;5059821;28;20584;-77
2021/03/31 02:48:47;;;;;;;4.45;4.05;;;;;;;;;;5059699;28;20174;-78
2021/03/31 02:51:13;;;;;;;4.90;4.32;;;;;;;;;;5063104;28;20182;-78
2021/03/31 02:53:40;;;;;;;5.45;4.22;;;;;;;;;;5057949;28;20192;-78
2021/03/31 02:56:07;;;;;;;7.50;5.05;;;;;;;;;;5061742;28;20209;-78
2021/03/31 02:58:33;;;;;;;5.03;4.20;;;;;;;;;;5057294;28;20212;-78
2021/03/31 03:01:02;;;;;;;5.28;4.25;;;;;;;;;;5057147;28;20659;-78
2021/03/31 03:03:28;;;;;;;8.02;5.28;;;;;;;;;;5062007;28;20180;-78
2021/03/31 03:05:55;;;;;;;6.55;4.38;;;;;;;;;;5061935;28;20585;-78
2021/03/31 03:08:24;;;;;;;5.38;4.50;;;;;;;;;;5060268;28;20177;-78
2021/03/31 03:10:50;;;;;;;4.32;3.72;;;;;;;;;;5063659;28;20631;-78
2021/03/31 03:13:19;;;;;;;4.38;3.60;;;;;;;;;;5057378;28;20237;-78
2021/03/31 03:15:45;;;;;;;4.93;4.20;;;;;;;;;;5062042;28;20694;-78
2021/03/31 03:18:11;;;;;;;5.37;4.53;;;;;;;;;;5063148;28;20188;-78
2021/03/31 03:20:37;;;;;;;8.02;4.38;;;;;;;;;;5059141;28;20434;-78
2021/03/31 03:23:03;;;;;;;5.43;4.67;;;;;;;;;;5054310;28;20205;-78
2021/03/31 03:25:29;;;;;;;6.53;4.30;;;;;;;;;;5060006;28;20544;-78
2021/03/31 03:27:56;;;;;;;5.60;4.70;;;;;;;;;;5057338;28;20327;-78
2021/03/31 03:30:22;;;;;;;6.80;4.78;;;;;;;;;;5061700;28;20184;-78
2021/03/31 03:32:49;;;;;;;4.38;4.07;;;;;;;;;;5074236;28;20208;-78
2021/03/31 03:35:16;;;;;;;4.80;4.00;;;;;;;;;;5061836;28;20189;-78
2021/03/31 03:37:43;;;;;;;4.97;4.28;;;;;;;;;;5059722;28;20188;-78
2021/03/31 03:40:10;;;;;;;5.57;3.88;;;;;;;;;;5059057;28;20241;-78
2021/03/31 03:42:37;;;;;;;4.53;4.15;;;;;;;;;;5059647;28;20239;-78
2021/03/31 03:45:04;;;;;;;6.50;4.63;;;;;;;;;;5058474;28;20354;-78
2021/03/31 03:47:30;;;;;;;4.82;4.35;;;;;;;;;;5058520;28;20197;-78
2021/03/31 03:49:56;;;;;;;6.80;4.50;;;;;;;;;;5059263;28;20203;-78
2021/03/31 03:52:23;;;;;;;5.20;4.32;;;;;;;;;;5060505;28;20189;-78
2021/03/31 03:54:53;;;;;;;5.13;4.63;;;;;;;;;;5057237;28;20213;-78
2021/03/31 03:57:26;;;;;;;4.75;4.18;;;;;;;;;;5064224;28;20276;-78
2021/03/31 03:59:52;;;;;;;6.30;5.15;;;;;;;;;;5057285;28;20228;-78
2021/03/31 04:02:19;;;;;;;5.80;4.35;;;;;;;;;;5058508;28;20219;-78
2021/03/31 04:04:45;;;;;;;7.50;4.18;;;;;;;;;;5071905;28;20223;-78
2021/03/31 04:07:11;;;;;;;6.05;4.60;;;;;;;;;;5054667;28;20185;-78
2021/03/31 04:09:40;;;;;;;6.03;4.55;;;;;;;;;;5057809;28;20247;-78
2021/03/31 04:12:06;;;;;;;5.22;4.35;;;;;;;;;;5074285;28;20193;-78
2021/03/31 04:14:33;;;;;;;8.27;5.55;;;;;;;;;;5058200;28;20201;-78
2021/03/31 04:17:01;;;;;;;5.00;4.30;;;;;;;;;;5059853;28;20177;-79
2021/03/31 04:19:28;;;;;;;4.93;4.43;;;;;;;;;;5055854;28;20196;-79
2021/03/31 04:21:54;;;;;;;5.20;4.70;;;;;;;;;;5056614;28;20178;-78
2021/03/31 04:24:20;;;;;;;9.80;5.05;;;;;;;;;;5060935;28;20213;-79
2021/03/31 04:26:47;;;;;;;10.88;5.80;;;;;;;;;;5071349;28;20207;-79
2021/03/31 04:29:13;;;;;;;6.45;5.00;;;;;;;;;;5059126;28;20188;-79
2021/03/31 04:31:40;;;;;;;7.30;4.78;;;;;;;;;;5055571;28;20185;-79
2021/03/31 04:34:07;;;;;;;7.20;4.70;;;;;;;;;;5057778;28;20189;-79
2021/03/31 04:36:33;;;;;;;6.80;4.95;;;;;;;;;;5059334;28;20273;-79
2021/03/31 04:39:03;;;;;;;6.68;5.75;;;;;;;;;;5057283;28;20186;-79
2021/03/31 04:41:29;;;;;;;7.90;5.50;;;;;;;;;;5057701;28;20170;-79
2021/03/31 04:43:55;;;;;;;7.53;5.32;;;;;;;;;;5054948;28;20217;-79
2021/03/31 04:46:21;;;;;;;5.13;4.60;;;;;;;;;;5058504;28;20189;-79
2021/03/31 04:48:47;;;;;;;9.27;4.63;;;;;;;;;;5056564;28;20510;-79
2021/03/31 04:51:13;;;;;;;6.73;5.40;;;;;;;;;;5059180;28;20180;-79
2021/03/31 04:53:39;;;;;;;11.52;7.88;;;;;;;;;;5059275;28;20498;-78
2021/03/31 04:56:06;;;;;;;8.93;6.00;;;;;;;;;;5062018;28;20181;-79
2021/03/31 04:58:32;;;;;;;7.43;4.90;;;;;;;;;;5054542;28;20432;-79
2021/03/31 05:00:59;;;;;;;6.57;4.90;;;;;;;;;;5056132;28;20178;-79
2021/03/31 05:03:26;;;;;;;7.70;5.25;;;;;;;;;;5057428;28;20182;-79
2021/03/31 05:05:52;;;;;;;7.30;5.30;;;;;;;;;;5058591;28;20185;-79
2021/03/31 05:08:18;;;;;;;7.57;5.65;;;;;;;;;;5057669;28;20439;-78
2021/03/31 05:10:45;;;;;;;7.63;4.80;;;;;;;;;;5056718;28;20415;-79
2021/03/31 05:13:11;;;;;;;6.57;5.45;;;;;;;;;;5057031;28;20181;-79
2021/03/31 05:15:37;;;;;;;7.05;4.97;;;;;;;;;;5062173;28;20224;-79
2021/03/31 05:18:03;;;;;;;9.20;5.25;;;;;;;;;;5060490;28;20185;-79
2021/03/31 05:20:29;;;;;;;8.23;5.70;;;;;;;;;;5059214;28;20203;-78
2021/03/31 05:22:55;;;;;;;11.53;5.50;;;;;;;;;;5056466;28;20176;-79
2021/03/31 05:25:21;;;;;;;6.93;5.47;;;;;;;;;;5054357;28;20483;-78
2021/03/31 05:27:47;;;;;;;6.70;5.43;;;;;;;;;;5057275;28;20193;-78
2021/03/31 05:30:14;;;;;;;6.32;5.68;;;;;;;;;;5070849;28;20174;-78
2021/03/31 05:32:40;;;;;;;7.75;5.13;;;;;;;;;;5055497;28;20199;-78
2021/03/31 05:35:07;;;;;;;6.00;4.80;;;;;;;;;;5061645;28;20692;-78
2021/03/31 05:37:33;;;;;;;5.63;4.90;;;;;;;;;;5058875;28;20586;-79
2021/03/31 05:39:59;;;;;;;8.20;5.47;;;;;;;;;;5054201;28;20181;-78
2021/03/31 05:42:26;;;;;;;7.80;5.75;;;;;;;;;;5057968;28;20218;-79
2021/03/31 05:44:52;;;;;;;6.88;5.25;;;;;;;;;;5070359;28;20245;-79
2021/03/31 05:47:28;;;;;;;7.15;5.90;;;;;;;;;;5058245;28;20185;-78
2021/03/31 05:49:54;;;;;;;7.40;6.35;;;;;;;;;;5073921;28;20184;-79
2021/03/31 05:52:21;;;;;;;8.43;5.72;;;;;;;;;;5059892;28;20220;-79
2021/03/31 05:54:46;;;;;;;10.68;6.38;;;;;;;;;;5059512;28;20252;-79
2021/03/31 05:57:13;;;;;;;9.40;7.30;;;;;;;;;;5061778;28;20557;-79
2021/03/31 05:59:39;;;;;;;9.05;6.65;;;;;;;;;;5055807;28;20440;-78
2021/03/31 06:02:10;;;;;;;7.50;5.40;;;;;;;;;;5062412;28;20698;-78
2021/03/31 06:04:36;;;;;;;12.68;5.95;;;;;;;;;;5053887;28;20204;-79
2021/03/31 06:07:03;;;;;;;7.88;6.38;;;;;;;;;;5058333;28;20204;-79
2021/03/31 06:09:29;;;;;;;10.20;6.07;;;;;;;;;;5056030;28;20189;-79
2021/03/31 06:12:00;;;;;;;9.37;6.07;;;;;;;;;;5056710;28;20257;-79
2021/03/31 06:14:30;;;;;;;10.02;6.50;;;;;;;;;;5059690;28;20470;-79
2021/03/31 06:17:04;;;;;;;8.30;6.35;;;;;;;;;;5057095;28;20189;-79
2021/03/31 06:19:30;;;;;;;9.27;5.90;;;;;;;;;;5073113;28;20191;-79
2021/03/31 06:22:07;;;;;;;8.75;6.05;;;;;;;;;;5059483;28;20428;-79
2021/03/31 06:24:42;;;;;;;10.80;6.07;;;;;;;;;;5057320;28;20185;-79
2021/03/31 06:27:08;;;;;;;8.50;6.55;;;;;;;;;;5064257;28;20192;-80
2021/03/31 06:30:02;;;;;;;8.70;6.53;;;;;;;;;;5055597;28;20181;-79
2021/03/31 06:32:30;;;;;;;8.70;6.45;;;;;;;;;;5057693;28;20182;-81
2021/03/31 06:34:57;;;;;;;11.70;6.60;;;;;;;;;;5062296;28;20201;-82
2021/03/31 06:37:24;;;;;;;9.20;6.65;;;;;;;;;;5062553;28;20181;-81
2021/03/31 06:39:52;;;;;;;11.43;7.55;;;;;;;;;;5061755;28;20185;-80
2021/03/31 06:42:19;;;;;;;8.90;6.80;;;;;;;;;;5061945;28;20205;-81
2021/03/31 06:47:27;;;;;;;16.35;7.07;;;;;;;;;;5058515;28;20332;-80
2021/03/31 06:49:54;;;;;;;8.77;6.90;;;;;;;;;;5062259;28;20187;-81
2021/03/31 06:52:20;;;;;;;9.13;6.82;;;;;;;;;;5063445;28;20185;-80
2021/03/31 06:54:50;;;;;;;10.13;6.30;;;;;;;;;;5060115;28;20331;-80
2021/03/31 06:57:27;;;;;;;9.60;7.38;;;;;;;;;;5062566;28;20184;-81
2021/03/31 06:59:57;;;;;;;8.18;7.30;;;;;;;;;;5060468;28;20185;-80
2021/03/31 07:02:25;;;;;;;13.00;8.30;;;;;;;;;;5069028;28;20240;-81
2021/03/31 07:04:51;;;;;;;13.20;7.45;;;;;;;;;;5062168;28;20261;-80
2021/03/31 07:07:17;;;;;;;8.50;7.55;;;;;;;;;;5070125;28;20177;-81
2021/03/31 07:09:44;;;;;;;12.40;8.10;;;;;;;;;;5055953;28;20196;-81
2021/03/31 07:12:19;;;;;;;9.93;7.35;;;;;;;;;;5058288;28;20181;-81
2021/03/31 07:14:48;;;;;;;10.25;7.15;;;;;;;;;;5053633;28;20212;-81
2021/03/31 07:17:21;;;;;;;11.35;7.80;;;;;;;;;;5056723;28;20245;-82
2021/03/31 07:19:47;;;;;;;11.10;8.18;;;;;;;;;;5060178;28;20177;-81
2021/03/31 07:22:14;;;;;;;11.95;8.45;;;;;;;;;;5059317;28;20209;-80
2021/03/31 07:24:40;;;;;;;11.82;7.70;;;;;;;;;;5058927;28;20192;-80
2021/03/31 07:27:08;;;;;;;10.38;8.18;;;;;;;;;;5067853;28;20272;-81
2021/03/31 07:29:34;;;;;;;11.15;9.95;;;;;;;;;;5056120;28;20205;-80
2021/03/31 07:32:01;;;;;;;12.43;8.77;;;;;;;;;;5053759;28;20192;-80
2021/03/31 07:34:29;;;;;;;13.43;8.65;;;;;;;;;;5057935;28;20209;-80
2021/03/31 07:36:55;;;;;;;9.35;8.07;;;;;;;;;;5056733;28;20635;-81
2021/03/31 07:39:24;;;;;;;12.27;8.07;;;;;;;;;;5076021;28;20195;-80
2021/03/31 07:41:50;;;;;;;13.60;9.05;;;;;;;;;;5057506;28;20201;-80
2021/03/31 07:44:18;;;;;;;9.65;8.65;;;;;;;;;;5062168;28;20232;-81
2021/03/31 07:46:45;;;;;;;10.35;8.38;;;;;;;;;;5056380;28;20181;-82
2021/03/31 07:49:11;;;;;;;10.70;8.98;;;;;;;;;;5059503;28;20211;-82
2021/03/31 07:51:39;;;;;;;11.85;9.07;;;;;;;;;;5060734;28;20188;-81
2021/03/31 07:54:05;;;;;;;11.70;9.43;;;;;;;;;;5059940;28;20201;-82
2021/03/31 07:56:31;;;;;;;13.15;9.93;;;;;;;;;;5059495;28;20176;-81
2021/03/31 07:59:04;;;;;;;19.67;10.87;;;;;;;;;;5060831;28;20233;-82
2021/03/31 08:01:33;;;;;;;9.13;8.23;;;;;;;;;;5055728;28;20514;-82
2021/03/31 08:04:01;;;;;;;12.32;9.27;;;;;;;;;;5055969;28;20521;-82
2021/03/31 08:06:30;;;;;;;11.98;9.68;;;;;;;;;;5050291;28;20193;-82
2021/03/31 08:08:57;;;;;;;15.65;9.75;;;;;;;;;;5056711;28;20185;-82
2021/03/31 08:11:41;;;;;;;12.13;9.65;;;;;;;;;;5057199;28;20211;-82
2021/03/31 08:14:11;;;;;;;11.93;10.32;;;;;;;;;;5059852;28;20264;-82
2021/03/31 08:16:40;;;;;;;12.57;9.60;;;;;;;;;;5059257;28;20193;-82
2021/03/31 08:19:17;;;;;;;15.70;11.38;;;;;;;;;;5056905;28;20288;-83
2021/03/31 08:21:44;;;;;;;14.50;10.57;;;;;;;;;;5057366;28;20192;-82
2021/03/31 08:24:11;;;;;;;13.43;11.45;;;;;;;;;;5058745;28;20269;-82
2021/03/31 08:26:47;;;;;;;16.02;13.15;;;;;;;;;;5055498;28;20209;-82
2021/03/31 08:29:19;;;;;;;17.55;12.90;;;;;;;;;;5059185;28;20188;-82
2021/03/31 08:31:49;;;;;;;17.05;12.80;;;;;;;;;;5057991;28;20174;-82
2021/03/31 08:34:16;;;;;;;15.30;12.45;;;;;;;;;;5054733;28;20668;-82
2021/03/31 08:36:43;;;;;;;15.32;12.98;;;;;;;;;;5056937;28;20196;-82
2021/03/31 08:39:10;;;;;;;15.00;13.45;;;;;;;;;;5056965;28;20228;-82
2021/03/31 08:41:40;;;;;;;15.02;12.50;;;;;;;;;;5069864;28;20178;-82
2021/03/31 08:44:17;;;;;;;16.70;13.48;;;;;;;;;;5057913;28;20211;-83
2021/03/31 08:46:43;;;;;;;15.88;12.55;;;;;;;;;;5055206;28;20272;-84
2021/03/31 08:49:23;;;;;;;15.17;12.17;;;;;;;;;;5054277;28;20201;-82
2021/03/31 08:51:50;;;;;;;18.63;11.90;;;;;;;;;;5058544;28;20451;-82
2021/03/31 08:54:19;;;;;;;17.80;11.65;;;;;;;;;;5056843;28;20203;-84
2021/03/31 08:56:48;;;;;;;14.80;12.20;;;;;;;;;;5055672;28;20189;-82
2021/03/31 08:59:16;;;;;;;15.95;13.60;;;;;;;;;;5060033;28;20244;-83
2021/03/31 09:01:42;;;;;;;16.05;13.13;;;;;;;;;;5058346;28;20677;-82
2021/03/31 09:04:15;;;;;;;16.83;12.52;;;;;;;;;;5056031;28;20676;-83
2021/03/31 09:06:41;;;;;;;15.75;12.50;;;;;;;;;;5057468;28;20215;-84
2021/03/31 09:09:07;;;;;;;15.23;12.32;;;;;;;;;;5056830;28;20181;-83
2021/03/31 09:11:33;;;;;;;15.25;12.82;;;;;;;;;;5058002;28;20598;-82
2021/03/31 09:14:16;;;;;;;16.98;12.48;;;;;;;;;;5055034;28;20265;-83
2021/03/31 09:17:08;;;;;;;21.92;11.85;;;;;;;;;;5052998;28;20181;-83
2021/03/31 09:19:35;;;;;;;13.35;11.65;;;;;;;;;;5051961;28;20212;-82
2021/03/31 09:22:14;;;;;;;15.45;11.48;;;;;;;;;;5059836;28;20322;-83
2021/03/31 09:24:41;;;;;;;21.42;11.65;;;;;;;;;;5056429;28;20188;-84
2021/03/31 09:27:11;;;;;;;14.35;11.43;;;;;;;;;;5057569;28;20186;-83
2021/03/31 09:29:42;;;;;;;12.77;10.88;;;;;;;;;;5056149;28;20185;-82
2021/03/31 09:32:11;;;;;;;18.45;12.88;;;;;;;;;;5061392;28;20181;-82
2021/03/31 09:34:37;;;;;;;16.15;11.18;;;;;;;;;;5053869;28;20196;-82
2021/03/31 09:37:05;;;;;;;17.03;11.60;;;;;;;;;;5054172;28;20193;-83
2021/03/31 09:39:38;;;;;;;17.10;11.50;;;;;;;;;;5058348;28;20436;-82
2021/03/31 09:42:04;;;;;;;13.20;11.20;;;;;;;;;;5058547;28;20174;-84
2021/03/31 09:44:31;;;;;;;22.73;12.35;;;;;;;;;;5056678;28;20259;-83
2021/03/31 09:46:58;;;;;;;15.10;10.40;;;;;;;;;;5055592;28;20189;-83
2021/03/31 09:49:24;;;;;;;16.13;11.13;;;;;;;;;;5054996;28;20181;-83
2021/03/31 09:51:50;;;;;;;18.10;10.80;;;;;;;;;;5056610;28;20212;-83
2021/03/31 09:54:16;;;;;;;17.92;11.30;;;;;;;;;;5054823;28;20201;-82
2021/03/31 09:56:43;;;;;;;12.27;9.68;;;;;;;;;;5055363;28;20189;-83
2021/03/31 09:59:10;;;;;;;13.23;10.30;;;;;;;;;;5061869;28;20171;-83
2021/03/31 10:01:38;;;;;;;13.80;8.93;;;;;;;;;;5053507;28;20181;-82
2021/03/31 10:04:05;;;;;;;10.70;8.80;;;;;;;;;;5055637;28;20650;-82
2021/03/31 10:06:31;;;;;;;14.70;9.93;;;;;;;;;;5057801;28;20180;-83
2021/03/31 10:08:57;;;;;;;18.10;10.73;;;;;;;;;;5055604;28;20245;-83
2021/03/31 10:11:27;;;;;;;18.20;10.40;;;;;;;;;;5057064;28;20423;-82
2021/03/31 10:13:53;;;;;;;17.48;10.40;;;;;;;;;;5061171;28;20909;-83
2021/03/31 10:16:19;;;;;;;15.45;8.30;;;;;;;;;;5056553;28;20185;-82
2021/03/31 10:18:45;;;;;;;15.10;8.82;;;;;;;;;;5056296;28;20178;-83
2021/03/31 10:21:11;;;;;;;13.43;9.32;;;;;;;;;;5072661;28;20307;-83
2021/03/31 10:23:38;;;;;;;14.90;9.02;;;;;;;;;;5055405;28;20292;-82
2021/03/31 10:26:16;;;;;;;12.10;8.40;;;;;;;;;;5060413;28;20185;-83
2021/03/31 10:28:42;;;;;;;17.23;8.73;;;;;;;;;;5053487;28;20254;-82
2021/03/31 10:31:38;;;;;;;12.65;8.43;;;;;;;;;;5051708;28;20195;-83
2021/03/31 10:34:05;;;;;;;14.07;7.75;;;;;;;;;;5052939;28;20206;-82
2021/03/31 10:36:40;;;;;;;17.40;7.47;;;;;;;;;;5056521;28;20189;-84
2021/03/31 10:47:53;;;;;;;13.50;9.52;;;;;;;;;;4992280;28;20195;-83
2021/03/31 10:50:16;;;;;;;17.90;8.70;;;;;;;;;;4981075;28;20251;-84
2021/03/31 10:52:50;;;;;;;12.30;8.55;;;;;;;;;;4965395;28;20196;-83
2021/03/31 10:55:16;;;;;;;11.18;8.30;;;;;;;;;;4964852;28;20209;-83
2021/03/31 10:57:42;;;;;;;16.73;7.80;;;;;;;;;;4978010;28;20291;-83
2021/03/31 11:00:08;;;;;;;10.23;7.00;;;;;;;;;;4975537;28;20676;-83
2021/03/31 11:02:34;;;;;;;10.98;6.35;;;;;;;;;;4979664;28;20482;-83
2021/03/31 11:05:00;;;;;;;9.60;6.23;;;;;;;;;;4984427;28;20202;-83
2021/03/31 11:07:26;;;;;;;15.63;7.72;;;;;;;;;;4965433;28;20449;-84
2021/03/31 11:09:52;;;;;;;4.30;3.90;;;;;;;;;;4981448;28;20199;-84
2021/03/31 11:12:18;;;;;;;4.70;4.30;;;;;;;;;;4980758;28;20454;-82
2021/03/31 11:14:44;;;;;;;11.07;6.10;;;;;;;;;;4980704;28;20471;-83
2021/03/31 11:17:20;;;;;;;10.32;4.97;;;;;;;;;;4984151;28;20176;-82
2021/03/31 11:20:04;;;;;;;6.63;4.10;;;;;;;;;;4981800;28;20172;-83
2021/03/31 11:27:59;;;;;;;5.03;3.60;;;;;;;;;;5056907;28;20440;-82
2021/03/31 11:30:25;;;;;;;3.20;2.73;;;;;;;;;;5073458;28;20439;-81
2021/03/31 11:32:51;;;;;;;4.90;3.60;;;;;;;;;;5061563;28;20436;-83
2021/03/31 11:35:17;;;;;;;3.53;2.80;;;;;;;;;;5061004;28;20455;-83
2021/03/31 11:37:43;;;;;;;4.77;3.60;;;;;;;;;;5060098;28;20469;-82
2021/03/31 11:40:09;;;;;;;4.67;3.47;;;;;;;;;;5057780;28;20938;-83
2021/03/31 11:42:35;;;;;;;3.57;3.10;;;;;;;;;;5058778;28;20475;-82
2021/03/31 11:45:01;;;;;;;6.50;4.20;;;;;;;;;;5058284;28;20500;-82
2021/03/31 11:47:27;;;;;;;4.67;3.60;;;;;;;;;;5058467;28;20519;-83
2021/03/31 11:49:53;;;;;;;4.97;3.97;;;;;;;;;;5057712;28;20430;-82
2021/03/31 11:52:19;;;;;;;4.50;3.20;;;;;;;;;;5062867;28;20581;-82
2021/03/31 11:54:45;;;;;;;6.60;3.90;;;;;;;;;;5058756;28;20471;-84
2021/03/31 11:57:11;;;;;;;5.23;3.83;;;;;;;;;;5058865;28;20466;-82
2021/03/31 11:59:37;;;;;;;4.43;3.80;;;;;;;;;;5062286;28;20415;-82
2021/03/31 12:02:03;;;;;;;4.67;3.33;;;;;;;;;;5063434;28;20415;-82
2021/03/31 12:04:29;;;;;;;6.30;3.97;;;;;;;;;;5058818;28;20544;-83
2021/03/31 12:06:56;;;;;;;6.83;3.57;;;;;;;;;;5056573;28;20409;-82
2021/03/31 12:09:23;;;;;;;4.47;4.00;;;;;;;;;;5058696;28;20524;-81
2021/03/31 12:11:49;;;;;;;3.63;3.30;;;;;;;;;;5059278;28;20734;-82
2021/03/31 12:14:15;;;;;;;5.97;3.53;;;;;;;;;;5064970;28;20464;-83
2021/03/31 12:16:41;;;;;;;4.10;3.43;;;;;;;;;;5057662;28;20453;-81
2021/03/31 12:19:07;;;;;;;4.00;3.50;;;;;;;;;;5058030;28;20442;-83
2021/03/31 12:21:33;;;;;;;7.37;4.20;;;;;;;;;;5067679;28;20441;-83
2021/03/31 12:23:59;;;;;;;3.90;3.53;;;;;;;;;;5072450;28;20470;-83
2021/03/31 12:26:25;;;;;;;7.50;3.20;;;;;;;;;;5058037;28;20426;-83
2021/03/31 12:28:53;;;;;;;3.70;2.87;;;;;;;;;;5058177;28;20419;-81
2021/03/31 12:31:19;;;;;;;4.50;3.30;;;;;;;;;;5060707;28;20439;-84
2021/03/31 12:33:45;;;;;;;3.03;2.73;;;;;;;;;;5057677;28;20791;-83
2021/03/31 12:36:11;;;;;;;2.77;2.57;;;;;;;;;;5070887;28;20436;-80
2021/03/31 12:38:37;;;;;;;3.50;2.90;;;;;;;;;;5053437;28;20419;-81
2021/03/31 12:41:03;;;;;;;2.73;2.53;;;;;;;;;;5059988;28;20486;-82
2021/03/31 12:43:29;;;;;;;3.40;3.10;;;;;;;;;;5060721;28;20482;-81
2021/03/31 12:45:55;;;;;;;3.10;2.87;;;;;;;;;;5055820;28;20439;-81
2021/03/31 12:48:21;;;;;;;3.13;2.90;;;;;;;;;;5058793;28;20471;-80
2021/03/31 12:50:52;;;;;;;5.60;2.87;;;;;;;;;;5055728;28;20435;-82
2021/03/31 12:53:22;;;;;;;3.67;3.07;;;;;;;;;;5060688;28;20832;-81
2021/03/31 12:55:50;;;;;;;6.17;2.67;;;;;;;;;;5060294;28;20528;-81
2021/03/31 12:58:19;;;;;;;4.57;3.23;;;;;;;;;;5053815;28;20452;-82
2021/03/31 13:00:46;;;;;;;3.10;2.80;;;;;;;;;;5057648;28;20432;-84
2021/03/31 13:03:12;;;;;;;3.57;3.20;;;;;;;;;;5058041;28;20447;-83
2021/03/31 13:05:39;;;;;;;3.63;2.87;;;;;;;;;;5056553;28;20403;-82
2021/03/31 13:08:08;;;;;;;4.73;4.13;;;;;;;;;;5057594;28;20415;-84
2021/03/31 13:10:34;;;;;;;3.87;3.10;;;;;;;;;;5054379;28;20435;-86
2021/03/31 13:24:16;;;;;;;3.53;3.23;;;;;;;;;;5055515;28;20447;-85
2021/03/31 13:32:05;;;;;;;3.90;3.60;;;;;;;;;;5058086;28;20432;-87
2021/03/31 13:34:36;;;;;;;3.57;3.27;;;;;;;;;;5058144;28;20495;-87
2021/03/31 13:39:50;;;;;;;3.23;3.03;;;;;;;;;;5061219;28;20477;-82
2021/03/31 13:42:16;;;;;;;3.37;3.17;;;;;;;;;;5054589;28;20444;-85
2021/03/31 13:44:43;;;;;;;3.30;3.10;;;;;;;;;;5054477;28;20503;-84
2021/03/31 13:47:12;;;;;;;2.87;2.67;;;;;;;;;;5061619;28;20447;-84
2021/03/31 13:49:42;;;;;;;3.70;3.20;;;;;;;;;;5058122;28;20427;-84
2021/03/31 13:52:30;;;;;;;6.90;4.23;;;;;;;;;;5055467;28;20415;-85
2021/03/31 13:54:58;;;;;;;3.10;2.80;;;;;;;;;;5045003;28;20444;-84
2021/03/31 13:57:27;;;;;;;2.83;2.53;;;;;;;;;;5052057;28;20994;-84
2021/03/31 13:59:54;;;;;;;7.83;3.33;;;;;;;;;;5055446;28;20513;-85
2021/03/31 14:02:20;;;;;;;2.63;2.43;;;;;;;;;;5056660;28;20502;-84
2021/03/31 14:04:46;;;;;;;8.77;3.07;;;;;;;;;;5055486;28;20459;-83
2021/03/31 14:07:12;;;;;;;2.80;2.60;;;;;;;;;;5055787;28;20852;-84
2021/03/31 14:09:39;;;;;;;5.37;3.07;;;;;;;;;;5057731;28;20431;-83
2021/03/31 14:12:06;;;;;;;3.97;3.03;;;;;;;;;;5068712;28;20440;-82
2021/03/31 14:14:33;;;;;;;4.30;3.10;;;;;;;;;;5058063;28;20506;-83
2021/03/31 14:19:30;;;;;;;4.23;3.23;;;;;;;;;;5025375;28;20435;-79
2021/03/31 14:21:57;;;;;;;4.70;2.90;;;;;;;;;;5054451;28;20448;-82
2021/03/31 14:24:23;;;;;;;4.40;2.80;;;;;;;;;;5027147;28;20467;-83
2021/03/31 14:26:49;;;;;;;6.23;3.60;;;;;;;;;;5038523;28;20881;-83
2021/03/31 14:29:15;;;;;;;3.23;2.83;;;;;;;;;;5041722;28;20422;-83
2021/03/31 14:31:41;;;;;;;6.97;4.57;;;;;;;;;;5052420;28;20425;-84
2021/03/31 14:34:09;;;;;;;3.50;3.20;;;;;;;;;;5034932;28;20444;-80
2021/03/31 14:36:38;;;;;;;4.03;3.57;;;;;;;;;;5037354;28;20451;-83
2021/03/31 14:39:16;;;;;;;4.80;3.30;;;;;;;;;;5058315;28;20449;-82
2021/03/31 14:41:42;;;;;;;5.17;3.63;;;;;;;;;;5047047;28;20447;-83
2021/03/31 14:44:33;;;;;;;6.60;3.43;;;;;;;;;;5061467;28;21011;-82
2021/03/31 14:47:00;;;;;;;3.40;3.00;;;;;;;;;;5043144;28;20988;-83
2021/03/31 14:49:27;;;;;;;4.47;3.43;;;;;;;;;;5043934;28;20471;-83
2021/03/31 14:59:50;;;;;;;3.10;2.80;;;;;;;;;;5042829;28;20440;-82
2021/03/31 15:02:16;;;;;;;3.13;2.67;;;;;;;;;;5044515;28;20394;-83
2021/03/31 15:04:42;;;;;;;3.93;2.60;;;;;;;;;;5041313;28;20466;-82
2021/03/31 15:07:08;;;;;;;4.47;3.07;;;;;;;;;;5036778;28;20424;-81
2021/03/31 15:09:34;;;;;;;4.30;3.90;;;;;;;;;;5038807;28;20420;-81
2021/03/31 15:12:00;;;;;;;4.57;3.07;;;;;;;;;;5041265;28;20447;-82
2021/03/31 15:14:27;;;;;;;3.30;3.00;;;;;;;;;;5045869;28;20390;-82
2021/03/31 15:16:54;;;;;;;3.67;2.90;;;;;;;;;;5043621;28;20397;-83
2021/03/31 15:22:23;;;;;;;3.40;2.80;;;;;;;;;;5040723;28;20456;-82
2021/03/31 15:24:52;;;;;;;3.63;3.07;;;;;;;;;;5041733;28;20436;-83
2021/03/31 15:27:18;;;;;;;2.97;2.77;;;;;;;;;;5041334;28;20435;-80
2021/03/31 15:29:44;;;;;;;2.67;2.47;;;;;;;;;;5041898;28;20462;-79
2021/03/31 15:32:10;;;;;;;2.60;2.30;;;;;;;;;;5060320;28;20512;-80